CheckWX is a tool to help pilots better visualize weather data.  It is not intended as a substitute for an official pre-flight weather briefing.

19:19:57 UTC

EGXT METAR
RAF Wittering Airport
Wittering, United Kingdom
Current

30 mins ago

EGXT 191850Z AUTO 20008KT 9999 FEW050/// OVC130/// 07/03 Q1016
Observed
Feb-19 @ 18:50 UTC
Wind
  • 200° at 8 KTS
Visibility
10,000+ meters
Flight Rules
VFR
Cloud Levels
  • Few at 5,000' AGL
  • Overcast at 13,000' AGL
Temperature
C / 45°F
Dewpoint
C / 37°F
Humidity
76%
Altimeter
30" Hg
Pressure
1015.92 hPa
Previous

1 hour ago

EGXT 191750Z AUTO 22009KT 9999 BKN049/// BKN140/// 08/03 Q1016
Observed
Feb-19 @ 17:50 UTC
Wind
  • 220° at 9 KTS
Visibility
10,000+ meters
Flight Rules
VFR
Cloud Levels
  • Broken at 4,900' AGL
  • Broken at 14,000' AGL
Temperature
C / 46°F
Dewpoint
C / 37°F
Humidity
71%
Altimeter
30" Hg
Pressure
1015.92 hPa
Previous

2 hours ago

EGXT 191650Z 21007KT 9999 FEW035 BKN150 08/03 Q1016 BLU
Observed
Feb-19 @ 16:50 UTC
Wind
  • 210° at 7 KTS
Visibility
10,000+ meters
Flight Rules
VFR
Cloud Levels
  • Few at 3,500' AGL
  • Broken at 15,000' AGL
Temperature
C / 46°F
Dewpoint
C / 37°F
Humidity
71%
Altimeter
30" Hg
Pressure
1015.92 hPa